Time;durP1;ratioP1;P1;durP2;ratioP2;P2;SDS_P1;SDS_P2;PMS_P1;PMS_P2;Temp;Humidity;BMP_temperature;BMP_pressure;BME280_temperature;BME280_humidity;BME280_pressure;Samples;Min_cycle;Max_cycle;Signal;HPM_P1;HPM_P2
2022/03/09 00:05:30;;;;;;;17.92;11.25;;;;;;;20.55;45.27;100885.38;20638939;28;97354;-77
2022/03/09 00:15:30;;;;;;;15.90;10.43;;;;;;;20.48;45.21;100894.59;20651176;27;100247;-77
2022/03/09 00:25:31;;;;;;;15.77;10.52;;;;;;;20.45;45.26;100900.91;20663821;27;98190;-77
2022/03/09 00:45:51;;;;;;;14.15;9.93;;;;;;;20.38;45.36;100893.53;20661387;28;98351;-77
2022/03/09 00:55:52;;;;;;;14.27;9.60;;;;;;;20.37;45.17;100887.41;20666752;28;98705;-78
2022/03/09 01:05:52;;;;;;;13.95;9.60;;;;;;;20.34;45.06;100869.22;20658709;28;96931;-76
2022/03/09 01:15:53;;;;;;;14.63;9.52;;;;;;;20.30;45.13;100873.84;20673949;27;99799;-77
2022/03/09 01:25:54;;;;;;;12.70;8.60;;;;;;;20.28;44.86;100873.09;20657383;28;98917;-78
2022/03/09 01:35:54;;;;;;;13.68;8.98;;;;;;;20.25;45.03;100881.22;20660944;28;97060;-78
2022/03/09 01:45:55;;;;;;;12.30;8.55;;;;;;;20.23;45.05;100883.09;20659191;28;97063;-77
2022/03/09 01:55:57;;;;;;;12.10;8.07;;;;;;;20.20;44.95;100882.44;20655321;27;98074;-77
2022/03/09 02:05:59;;;;;;;11.20;7.65;;;;;;;20.16;44.71;100894.94;20655509;28;98168;-78
2022/03/09 02:15:59;;;;;;;11.50;7.75;;;;;;;20.17;44.96;100880.03;20659317;28;97445;-78
2022/03/09 02:26:00;;;;;;;12.98;7.93;;;;;;;20.11;44.83;100905.75;20662559;28;100867;-77
2022/03/09 02:36:00;;;;;;;11.07;7.07;;;;;;;20.10;44.99;100895.34;20665022;28;97695;-77
2022/03/09 02:46:01;;;;;;;11.95;7.95;;;;;;;20.07;44.69;100892.94;20667437;28;98061;-76
2022/03/09 02:56:04;;;;;;;9.20;6.90;;;;;;;20.05;44.83;100885.13;20656276;28;97267;-76
2022/03/09 03:06:04;;;;;;;12.63;7.50;;;;;;;20.05;44.80;100879.03;20662495;27;97842;-77
2022/03/09 03:16:08;;;;;;;10.07;7.35;;;;;;;19.99;44.94;100870.59;20620967;28;98763;-77
2022/03/09 03:26:09;;;;;;;9.95;6.75;;;;;;;19.98;44.54;100875.94;20649817;28;97585;-77
2022/03/09 03:36:10;;;;;;;11.13;7.55;;;;;;;19.96;44.63;100885.72;20644697;28;98226;-78
2022/03/09 03:46:10;;;;;;;9.02;6.28;;;;;;;19.93;44.19;100876.25;20647636;28;97611;-77
2022/03/09 03:56:11;;;;;;;8.43;6.25;;;;;;;19.90;44.59;100876.44;20651917;28;98840;-77
2022/03/09 04:06:12;;;;;;;10.73;6.85;;;;;;;19.87;44.67;100881.88;20655643;28;97604;-78
2022/03/09 04:16:12;;;;;;;9.15;6.07;;;;;;;19.87;44.60;100865.28;20648539;28;97707;-78
2022/03/09 04:26:13;;;;;;;8.48;6.43;;;;;;;19.83;44.98;100870.75;20649359;27;97710;-78
2022/03/09 04:36:13;;;;;;;10.45;6.10;;;;;;;19.82;44.83;100869.03;20648219;27;99477;-77
2022/03/09 04:46:14;;;;;;;7.95;5.80;;;;;;;19.82;44.80;100876.06;20651999;28;98124;-77
2022/03/09 04:56:15;;;;;;;9.38;6.20;;;;;;;19.81;45.02;100874.34;20650618;28;100677;-77
2022/03/09 05:06:16;;;;;;;8.25;5.82;;;;;;;19.80;45.04;100870.06;20647782;28;96892;-78
2022/03/09 05:16:16;;;;;;;9.57;5.60;;;;;;;19.98;45.51;100865.41;20670115;27;97029;-78
2022/03/09 05:26:17;;;;;;;12.88;5.72;;;;;;;20.14;46.24;100862.63;20684545;28;97704;-78
2022/03/09 05:36:19;;;;;;;9.85;5.80;;;;;;;20.24;46.47;100862.91;20677354;27;97087;-82
2022/03/09 05:46:20;;;;;;;9.45;5.55;;;;;;;20.29;45.86;100890.56;20691931;27;98155;-80
2022/03/09 05:56:20;;;;;;;15.65;7.25;;;;;;;20.25;44.29;100917.16;20682215;27;99056;-77
2022/03/09 06:06:20;;;;;;;19.88;8.10;;;;;;;20.33;44.35;100925.41;20660837;28;98334;-77
2022/03/09 06:16:21;;;;;;;22.02;7.18;;;;;;;20.39;43.94;100930.25;20659000;27;97462;-77
2022/03/09 06:26:21;;;;;;;27.83;7.72;;;;;;;20.45;44.85;100929.03;20666384;28;97282;-77
2022/03/09 06:36:22;;;;;;;19.02;7.18;;;;;;;20.48;43.49;100929.66;20655047;27;96966;-76
2022/03/09 06:46:22;;;;;;;14.73;7.05;;;;;;;20.53;44.15;100934.63;20662070;27;97188;-77
2022/03/09 06:56:23;;;;;;;16.30;6.85;;;;;;;20.56;44.11;100937.03;20659740;28;97208;-78
2022/03/09 07:06:23;;;;;;;19.75;8.77;;;;;;;20.62;43.99;100949.78;20644663;28;96924;-78
2022/03/09 07:16:24;;;;;;;18.25;8.38;;;;;;;20.63;43.85;100974.34;20636328;28;97472;-79
2022/03/09 07:26:24;;;;;;;15.73;8.70;;;;;;;20.68;44.06;100942.44;20645340;28;97685;-78
2022/03/09 07:36:24;;;;;;;18.83;8.43;;;;;;;20.75;44.16;100936.69;20637574;27;97594;-78
2022/03/09 07:46:25;;;;;;;16.75;9.65;;;;;;;20.81;43.59;100917.00;20645294;28;97791;-77
2022/03/09 07:56:25;;;;;;;17.50;10.45;;;;;;;20.84;43.88;100922.06;20643995;27;97610;-78
2022/03/09 08:06:26;;;;;;;18.48;10.82;;;;;;;20.86;44.58;100908.81;20647710;28;96926;-78
2022/03/09 08:16:26;;;;;;;14.88;10.45;;;;;;;20.89;45.05;100888.38;20646805;27;100199;-78
2022/03/09 08:26:27;;;;;;;16.65;11.65;;;;;;;20.95;44.09;100898.50;20641944;28;97595;-76
2022/03/09 08:36:27;;;;;;;18.52;12.55;;;;;;;20.97;44.29;100890.50;20654327;28;97853;-76
2022/03/09 08:46:28;;;;;;;18.17;11.23;;;;;;;21.00;44.00;100885.03;20654151;28;96871;-76
2022/03/09 08:56:28;;;;;;;17.48;11.63;;;;;;;21.03;43.48;100879.56;20665833;28;99836;-77
2022/03/09 09:06:29;;;;;;;16.83;11.60;;;;;;;21.08;43.04;100872.19;20662335;28;99031;-76
2022/03/09 09:16:29;;;;;;;15.48;11.07;;;;;;;21.10;42.88;100866.78;20654686;28;96786;-76
2022/03/09 09:26:30;;;;;;;16.63;11.82;;;;;;;21.10;43.19;100867.66;20652990;27;97690;-77
2022/03/09 09:36:30;;;;;;;15.38;11.73;;;;;;;21.10;42.79;100864.16;20667371;28;97459;-76
2022/03/09 09:46:30;;;;;;;17.38;12.07;;;;;;;21.09;42.61;100863.31;20657995;28;97577;-75
2022/03/09 09:56:36;;;;;;;18.58;11.82;;;;;;;21.10;42.72;100864.16;20655023;28;97475;-76
2022/03/09 10:06:37;;;;;;;17.33;12.90;;;;;;;21.10;42.23;100853.63;20661086;28;97525;-76
2022/03/09 10:16:38;;;;;;;15.15;11.68;;;;;;;21.10;42.30;100854.50;20648248;28;96901;-76
2022/03/09 10:26:42;;;;;;;15.50;10.85;;;;;;;21.12;42.62;100838.56;20652724;28;99746;-76
2022/03/09 10:37:03;;;;;;;14.02;10.50;;;;;;;21.18;42.13;100824.09;20651778;28;97416;-76
2022/03/09 10:47:03;;;;;;;13.23;10.38;;;;;;;21.20;42.11;100820.44;20648833;28;100338;-77
2022/03/09 10:57:13;;;;;;;12.90;9.43;;;;;;;21.24;41.86;100800.84;20652613;28;96895;-76
2022/03/09 11:07:14;;;;;;;14.50;9.75;;;;;;;21.29;42.02;100795.25;20657807;28;100024;-76
2022/03/09 11:17:16;;;;;;;11.98;9.18;;;;;;;21.35;41.75;100783.41;20646571;28;96995;-76
2022/03/09 11:27:16;;;;;;;10.10;8.63;;;;;;;21.41;41.93;100778.56;20646549;28;97428;-76
2022/03/09 11:37:38;;;;;;;10.52;8.13;;;;;;;21.47;41.57;100768.50;20651327;28;97090;-76
2022/03/09 11:48:14;;;;;;;8.85;7.35;;;;;;;21.57;41.80;100759.03;20648721;28;97474;-76
2022/03/09 11:58:15;;;;;;;8.23;7.03;;;;;;;21.64;41.48;100757.63;20641103;28;97065;-76
2022/03/09 12:08:15;;;;;;;5.43;4.75;;;;;;;19.84;26.35;100746.28;20634397;28;97207;-75
2022/03/09 12:18:36;;;;;;;7.07;3.90;;;;;;;21.01;31.22;100727.91;20633365;28;100264;-75
2022/03/09 12:28:36;;;;;;;4.55;3.15;;;;;;;21.41;33.88;100731.13;20650919;28;96946;-75
2022/03/09 12:38:40;;;;;;;8.70;3.70;;;;;;;21.54;35.74;100725.78;20647518;28;98068;-74
2022/03/09 12:48:41;;;;;;;5.15;3.30;;;;;;;21.65;36.96;100724.19;20659650;28;97237;-74
2022/03/09 12:58:43;;;;;;;9.82;3.60;;;;;;;21.69;37.65;100725.66;20656779;27;97554;-74
2022/03/09 13:08:43;;;;;;;6.00;3.30;;;;;;;21.68;38.21;100719.53;20673508;27;98458;-73
2022/03/09 13:18:44;;;;;;;3.35;3.00;;;;;;;21.65;38.50;100713.66;20670195;27;98355;-75
2022/03/09 13:28:47;;;;;;;5.10;2.73;;;;;;;21.61;38.95;100699.88;20666080;28;97651;-75
2022/03/09 13:38:57;;;;;;;6.90;3.10;;;;;;;21.58;39.20;100690.41;20664137;28;97475;-74
2022/03/09 13:49:07;;;;;;;5.07;2.85;;;;;;;21.52;39.26;100688.19;20665852;27;98296;-75
2022/03/09 13:59:09;;;;;;;3.85;2.70;;;;;;;21.48;39.35;100689.34;20670587;28;97562;-75
2022/03/09 14:09:18;;;;;;;3.70;2.93;;;;;;;21.43;39.30;100678.31;20655362;28;97383;-75
2022/03/09 14:19:22;;;;;;;8.50;3.03;;;;;;;21.37;39.68;100679.63;20628894;27;99480;-75
2022/03/09 14:29:23;;;;;;;6.40;2.85;;;;;;;21.35;39.61;100686.81;20667934;28;100334;-76
2022/03/09 14:39:25;;;;;;;6.38;3.03;;;;;;;21.33;39.72;100691.34;20661794;27;97362;-76
2022/03/09 14:49:26;;;;;;;8.70;3.80;;;;;;;21.24;38.11;100682.31;20653861;27;98115;-75
2022/03/09 14:59:27;;;;;;;9.65;3.47;;;;;;;21.22;38.66;100684.22;20657129;27;99626;-76
2022/03/09 15:09:28;;;;;;;9.55;3.58;;;;;;;21.20;38.73;100690.53;20652498;27;97996;-76
2022/03/09 15:19:28;;;;;;;6.75;3.30;;;;;;;21.12;38.81;100691.13;20651268;28;97688;-76
2022/03/09 15:29:29;;;;;;;5.13;3.03;;;;;;;21.02;39.31;100693.56;20654420;28;97383;-76
2022/03/09 15:39:30;;;;;;;7.15;3.15;;;;;;;20.95;39.33;100693.16;20663013;27;97240;-76
2022/03/09 15:49:31;;;;;;;5.30;2.95;;;;;;;20.99;39.44;100692.94;20648832;28;100882;-76
2022/03/09 15:59:31;;;;;;;10.23;3.88;;;;;;;21.05;41.03;100703.03;20640385;27;97009;-76
2022/03/09 16:09:31;;;;;;;11.02;3.58;;;;;;;21.08;41.26;100708.06;20646567;28;98179;-76
2022/03/09 16:19:32;;;;;;;11.88;4.10;;;;;;;21.04;41.29;100706.63;20631178;27;97463;-76
2022/03/09 16:29:32;;;;;;;11.18;3.60;;;;;;;21.00;41.37;100703.34;20634917;28;98279;-76
2022/03/09 16:39:33;;;;;;;10.57;3.38;;;;;;;21.01;41.30;100712.94;20627763;28;97903;-75
2022/03/09 16:49:33;;;;;;;11.77;4.00;;;;;;;21.00;40.81;100723.59;20635164;28;97289;-76
2022/03/09 16:59:33;;;;;;;9.93;3.53;;;;;;;21.01;41.25;100734.00;20638775;28;97594;-75
2022/03/09 17:09:35;;;;;;;19.65;4.28;;;;;;;21.01;41.24;100731.38;20647549;28;98569;-76
2022/03/09 17:19:35;;;;;;;11.75;3.67;;;;;;;21.01;40.96;100743.72;20649624;27;100166;-75
2022/03/09 17:29:36;;;;;;;16.35;3.47;;;;;;;21.00;41.60;100740.22;20659346;28;98698;-75
2022/03/09 17:39:37;;;;;;;12.45;3.83;;;;;;;21.03;42.12;100750.53;20645061;27;99008;-76
2022/03/09 17:49:37;;;;;;;13.25;3.60;;;;;;;21.05;42.58;100751.25;20678071;27;98100;-76
2022/03/09 17:59:38;;;;;;;8.48;2.78;;;;;;;21.07;42.75;100762.53;20654768;28;98297;-77
2022/03/09 18:09:40;;;;;;;7.55;3.50;;;;;;;21.13;43.50;100765.66;20652020;28;98435;-79
2022/03/09 18:19:40;;;;;;;9.13;3.10;;;;;;;21.13;43.30;100765.66;20676074;27;98619;-80
2022/03/09 18:29:41;;;;;;;8.30;3.45;;;;;;;21.14;43.43;100768.22;20674704;27;98356;-79
2022/03/09 18:39:42;;;;;;;8.40;3.30;;;;;;;21.17;43.35;100785.59;20671894;28;97395;-79
2022/03/09 18:49:44;;;;;;;7.63;3.20;;;;;;;21.18;43.90;100796.00;20667417;28;97578;-79
2022/03/09 18:59:44;;;;;;;8.65;3.88;;;;;;;21.22;45.33;100810.63;20684374;27;97886;-79
2022/03/09 19:09:46;;;;;;;6.18;4.10;;;;;;;21.27;47.37;100810.31;20697363;27;97607;-80
2022/03/09 19:19:46;;;;;;;6.22;3.10;;;;;;;21.28;47.44;100806.72;20683945;27;97042;-80
2022/03/09 19:29:47;;;;;;;8.88;3.33;;;;;;;21.30;47.36;100817.16;20662946;28;97505;-78
2022/03/09 19:39:48;;;;;;;8.15;3.35;;;;;;;21.30;46.39;100825.91;20657144;28;97688;-78
2022/03/09 19:49:48;;;;;;;9.38;3.78;;;;;;;21.29;46.70;100821.59;20666813;27;100724;-77
2022/03/09 19:59:50;;;;;;;12.75;5.50;;;;;;;21.19;44.92;100833.69;20664327;28;97039;-75
2022/03/09 20:09:50;;;;;;;6.90;4.53;;;;;;;21.20;45.19;100848.56;20645096;28;97824;-76
2022/03/09 20:19:51;;;;;;;12.07;6.40;;;;;;;21.16;44.89;100845.28;20643931;28;100219;-76
2022/03/09 20:29:51;;;;;;;10.85;6.78;;;;;;;21.15;44.64;100842.78;20634873;27;99415;-77
2022/03/09 20:39:52;;;;;;;8.05;4.93;;;;;;;21.17;44.54;100846.16;20647104;27;98778;-76
2022/03/09 20:49:54;;;;;;;9.38;5.20;;;;;;;21.14;44.76;100855.13;20638658;28;97809;-77
2022/03/09 20:59:55;;;;;;;8.15;4.63;;;;;;;21.11;44.90;100853.50;20630703;28;100263;-77
2022/03/09 21:09:55;;;;;;;7.85;4.80;;;;;;;21.08;45.17;100868.69;20637235;27;99030;-76
2022/03/09 21:19:56;;;;;;;6.82;4.25;;;;;;;21.02;44.77;100867.34;20638748;27;98109;-77
2022/03/09 21:29:56;;;;;;;6.97;4.40;;;;;;;21.01;45.26;100868.28;20651865;27;100727;-77
2022/03/09 21:39:57;;;;;;;7.95;4.60;;;;;;;21.00;44.76;100871.03;20652255;28;97094;-77
2022/03/09 21:49:58;;;;;;;9.43;5.22;;;;;;;20.97;44.86;100871.22;20643877;27;98777;-78
2022/03/09 21:59:59;;;;;;;7.05;4.32;;;;;;;20.98;45.54;100880.81;20645753;27;98869;-78
2022/03/09 22:09:59;;;;;;;6.60;4.23;;;;;;;21.03;46.24;100882.19;20633146;27;107479;-77
2022/03/09 22:20:00;;;;;;;6.35;4.03;;;;;;;20.99;46.38;100882.50;20577907;28;97456;-77
2022/03/09 22:30:01;;;;;;;9.35;3.97;;;;;;;20.98;46.48;100870.28;20564923;28;98858;-76
2022/03/09 22:40:02;;;;;;;6.43;4.15;;;;;;;20.94;46.42;100870.47;20561872;28;96997;-75
2022/03/09 22:50:04;;;;;;;5.38;4.10;;;;;;;20.89;45.91;100884.91;20568304;27;99605;-77
2022/03/09 23:00:11;;;;;;;5.03;3.85;;;;;;;20.84;45.68;100887.84;20550778;27;97725;-76
2022/03/09 23:10:12;;;;;;;5.40;3.90;;;;;;;20.81;45.74;100892.50;20575555;27;98101;-76
2022/03/09 23:20:13;;;;;;;7.00;4.00;;;;;;;20.76;45.36;100893.66;20559472;27;97602;-76
2022/03/09 23:30:15;;;;;;;6.18;4.13;;;;;;;20.72;45.71;100899.22;20614675;27;97195;-76
2022/03/09 23:40:16;;;;;;;7.30;3.92;;;;;;;20.69;45.21;100904.66;20628648;27;97360;-77
2022/03/09 23:50:17;;;;;;;6.20;4.20;;;;;;;20.62;45.01;100912.94;20631374;27;97949;-76
